createdAt,value
2023-01-07T00:00:01.563Z,0.00
2023-01-07T00:01:01.692Z,0.00
2023-01-07T00:02:01.852Z,0.00
2023-01-07T00:03:02.072Z,0.00
2023-01-07T00:04:02.198Z,0.00
2023-01-07T00:05:02.210Z,0.00
2023-01-07T00:06:02.344Z,0.00
2023-01-07T00:07:02.484Z,0.00
2023-01-07T00:08:02.639Z,0.00
2023-01-07T00:09:02.770Z,0.00
2023-01-07T00:10:02.909Z,0.00
2023-01-07T00:11:03.032Z,0.00
2023-01-07T00:12:03.200Z,0.00
2023-01-07T00:13:03.343Z,0.00
2023-01-07T00:14:03.497Z,0.00
2023-01-07T00:15:03.638Z,0.00
2023-01-07T00:16:03.863Z,0.00
2023-01-07T00:17:03.909Z,0.00
2023-01-07T00:18:04.037Z,0.00
2023-01-07T00:19:04.189Z,0.00
2023-01-07T00:20:04.342Z,0.00
2023-01-07T00:21:04.502Z,0.00
2023-01-07T00:22:04.699Z,0.00
2023-01-07T00:23:04.713Z,0.00
2023-01-07T00:24:04.894Z,0.00
2023-01-07T00:25:05.025Z,0.00
2023-01-07T00:26:05.184Z,0.00
2023-01-07T00:27:05.343Z,0.00
2023-01-07T00:28:05.484Z,0.00
2023-01-07T00:29:05.624Z,0.00
2023-01-07T00:30:05.747Z,0.00
2023-01-07T00:31:06.065Z,0.00
2023-01-07T00:32:06.008Z,0.00
2023-01-07T00:33:06.152Z,0.00
2023-01-07T00:34:06.293Z,0.00
2023-01-07T00:35:06.433Z,0.00
2023-01-07T00:36:06.552Z,0.00
2023-01-07T00:37:06.697Z,0.00
2023-01-07T00:38:06.848Z,0.00
2023-01-07T00:39:06.985Z,0.00
2023-01-07T00:40:07.140Z,0.00
2023-01-07T00:41:07.272Z,0.00
2023-01-07T00:42:07.494Z,0.00
2023-01-07T00:43:07.511Z,0.00
2023-01-07T00:44:07.685Z,0.00
2023-01-07T00:45:07.825Z,0.00
2023-01-07T00:46:07.961Z,0.00
2023-01-07T00:47:08.112Z,0.00
2023-01-07T00:48:08.254Z,0.00
2023-01-07T00:49:08.394Z,0.00
2023-01-07T00:50:08.536Z,0.00
2023-01-07T00:51:08.679Z,0.00
2023-01-07T00:52:08.850Z,0.00
2023-01-07T00:53:08.981Z,0.00
2023-01-07T00:54:09.133Z,0.00
2023-01-07T00:55:09.256Z,0.00
2023-01-07T00:56:09.408Z,0.00
2023-01-07T00:57:09.535Z,0.00
2023-01-07T00:58:09.699Z,0.00
2023-01-07T00:59:09.839Z,0.00
2023-01-07T01:00:09.977Z,0.00
2023-01-07T01:01:10.243Z,0.00
2023-01-07T01:02:10.416Z,0.00
2023-01-07T01:03:10.397Z,0.00
2023-01-07T01:04:10.534Z,0.00
2023-01-07T01:05:10.665Z,0.00
2023-01-07T01:06:10.813Z,0.00
2023-01-07T01:07:10.960Z,0.00
2023-01-07T01:08:11.094Z,0.00
2023-01-07T01:09:11.227Z,0.00
2023-01-07T01:10:11.356Z,0.00
2023-01-07T01:11:11.488Z,0.00
2023-01-07T01:12:11.662Z,0.00
2023-01-07T01:13:11.800Z,0.00
2023-01-07T01:14:11.980Z,0.00
2023-01-07T01:15:12.160Z,0.00
2023-01-07T01:16:12.224Z,0.00
2023-01-07T01:17:12.388Z,0.00
2023-01-07T01:18:12.520Z,0.00
2023-01-07T01:19:12.655Z,0.00
2023-01-07T01:20:12.803Z,0.00
2023-01-07T01:21:12.940Z,0.00
2023-01-07T01:22:13.096Z,0.00
2023-01-07T01:23:13.239Z,0.00
2023-01-07T01:24:13.386Z,0.00
2023-01-07T01:25:13.524Z,0.00
2023-01-07T01:26:13.677Z,0.00
2023-01-07T01:27:13.804Z,0.00
2023-01-07T01:28:13.956Z,0.00
2023-01-07T01:29:14.079Z,0.00
2023-01-07T01:30:14.217Z,0.00
2023-01-07T01:31:14.396Z,0.00
2023-01-07T01:32:14.464Z,0.00
2023-01-07T01:33:14.591Z,0.00
2023-01-07T01:34:14.735Z,0.00
2023-01-07T01:35:14.869Z,0.00
2023-01-07T01:36:15.015Z,0.00
2023-01-07T01:37:15.164Z,0.00
2023-01-07T01:38:15.301Z,0.00
2023-01-07T01:39:15.435Z,0.00
2023-01-07T01:40:15.576Z,0.00
2023-01-07T01:41:15.706Z,0.00
2023-01-07T01:42:15.860Z,0.00
2023-01-07T01:43:15.990Z,0.00
2023-01-07T01:44:16.156Z,0.00
2023-01-07T01:45:16.304Z,0.00
2023-01-07T01:46:16.484Z,0.00
2023-01-07T01:47:16.528Z,0.00
2023-01-07T01:48:16.667Z,0.00
2023-01-07T01:49:16.806Z,0.00
2023-01-07T01:50:16.959Z,0.00
2023-01-07T01:51:17.070Z,0.00
2023-01-07T01:52:17.241Z,0.00
2023-01-07T01:53:17.368Z,0.00
2023-01-07T01:54:17.512Z,0.00
2023-01-07T01:55:17.636Z,0.00
2023-01-07T01:56:17.778Z,0.00
2023-01-07T01:57:17.926Z,0.00
2023-01-07T01:58:18.057Z,0.00
2023-01-07T01:59:18.204Z,0.00
2023-01-07T02:00:18.339Z,0.00
2023-01-07T02:01:18.603Z,0.00
2023-01-07T02:02:18.751Z,0.00
2023-01-07T02:03:18.765Z,0.00
2023-01-07T02:04:18.901Z,0.00
2023-01-07T02:05:19.050Z,0.00
2023-01-07T02:06:19.199Z,0.00
2023-01-07T02:07:19.353Z,0.00
2023-01-07T02:08:19.499Z,0.00
2023-01-07T02:09:19.631Z,0.00
2023-01-07T02:10:19.785Z,0.00
2023-01-07T02:11:19.908Z,0.00
2023-01-07T02:12:20.067Z,0.00
2023-01-07T02:13:20.195Z,0.00
2023-01-07T02:14:20.348Z,0.00
2023-01-07T02:15:20.497Z,0.00
2023-01-07T02:16:20.697Z,0.00
2023-01-07T02:17:20.815Z,0.00
2023-01-07T02:18:20.950Z,0.00
2023-01-07T02:19:21.083Z,0.00
2023-01-07T02:20:21.232Z,0.00
2023-01-07T02:21:21.369Z,0.00
2023-01-07T02:22:21.527Z,0.00
2023-01-07T02:23:21.668Z,0.00
2023-01-07T02:24:21.786Z,0.00
2023-01-07T02:25:21.940Z,0.00
2023-01-07T02:26:22.061Z,0.00
2023-01-07T02:27:22.219Z,0.00
2023-01-07T02:28:22.361Z,0.00
2023-01-07T02:29:22.483Z,0.00
2023-01-07T02:30:22.622Z,0.00
2023-01-07T02:31:22.824Z,0.00
2023-01-07T02:32:22.956Z,0.00
2023-01-07T02:33:23.098Z,0.00
2023-01-07T02:34:23.242Z,0.00
2023-01-07T02:35:23.371Z,0.00
2023-01-07T02:36:23.520Z,0.00
2023-01-07T02:37:23.678Z,0.00
2023-01-07T02:38:23.825Z,0.00
2023-01-07T02:39:23.954Z,0.00
2023-01-07T02:40:24.100Z,0.00
2023-01-07T02:41:24.232Z,0.00
2023-01-07T02:42:24.386Z,0.00
2023-01-07T02:43:24.510Z,0.00
2023-01-07T02:44:24.642Z,0.00
2023-01-07T02:45:24.773Z,0.00
2023-01-07T02:46:24.930Z,0.00
2023-01-07T02:47:25.065Z,0.00
2023-01-07T02:48:25.202Z,0.00
2023-01-07T02:49:25.321Z,0.00
2023-01-07T02:50:25.454Z,0.00
2023-01-07T02:51:25.595Z,0.00
2023-01-07T02:52:25.743Z,0.00
2023-01-07T02:53:25.879Z,0.00
2023-01-07T02:54:26.006Z,0.00
2023-01-07T02:55:26.138Z,0.00
2023-01-07T02:56:26.288Z,0.00
2023-01-07T02:57:26.438Z,0.00
2023-01-07T02:58:26.573Z,0.00
2023-01-07T02:59:26.708Z,0.00
2023-01-07T03:00:26.850Z,0.00
2023-01-07T03:01:27.106Z,0.00
2023-01-07T03:02:27.163Z,0.00
2023-01-07T03:03:27.298Z,0.00
2023-01-07T03:04:27.487Z,0.00
2023-01-07T03:05:27.585Z,0.00
2023-01-07T03:06:27.727Z,0.00
2023-01-07T03:07:27.871Z,0.00
2023-01-07T03:08:28.011Z,0.00
2023-01-07T03:09:28.156Z,0.00
2023-01-07T03:10:28.292Z,0.00
2023-01-07T03:11:28.416Z,0.00
2023-01-07T03:12:28.561Z,0.00
2023-01-07T03:13:28.684Z,0.00
2023-01-07T03:14:28.819Z,0.00
2023-01-07T03:15:29.337Z,0.00
2023-01-07T03:16:29.152Z,0.00
2023-01-07T03:17:29.321Z,0.00
2023-01-07T03:18:29.458Z,0.00
2023-01-07T03:19:29.590Z,0.00
2023-01-07T03:20:29.720Z,0.00
2023-01-07T03:21:29.844Z,0.00
2023-01-07T03:22:29.988Z,0.00
2023-01-07T03:23:30.118Z,0.00
2023-01-07T03:24:30.252Z,0.00
2023-01-07T03:25:30.386Z,0.00
2023-01-07T03:26:30.525Z,0.00
2023-01-07T03:27:30.670Z,0.00
2023-01-07T03:28:30.805Z,0.00
2023-01-07T03:29:30.935Z,0.00
2023-01-07T03:30:31.077Z,0.00
2023-01-07T03:31:31.262Z,0.00
2023-01-07T03:32:31.405Z,0.00
2023-01-07T03:33:31.549Z,0.00
2023-01-07T03:34:31.682Z,0.00
2023-01-07T03:35:31.812Z,0.00
2023-01-07T03:36:31.939Z,0.00
2023-01-07T03:37:32.080Z,0.00
2023-01-07T03:38:32.215Z,0.00
2023-01-07T03:39:32.338Z,0.00
2023-01-07T03:40:32.481Z,0.00
2023-01-07T03:41:32.599Z,0.00
2023-01-07T03:42:32.759Z,0.00
2023-01-07T03:43:39.902Z,0.00
2023-01-07T03:44:33.012Z,0.00
2023-01-07T03:45:33.160Z,0.00
2023-01-07T03:46:33.282Z,0.00
2023-01-07T03:47:33.430Z,0.00
2023-01-07T03:48:33.580Z,0.00
2023-01-07T03:49:33.701Z,0.00
2023-01-07T03:50:33.855Z,0.00
2023-01-07T03:51:33.973Z,0.00
2023-01-07T03:52:34.127Z,0.00
2023-01-07T03:53:34.247Z,0.00
2023-01-07T03:54:34.384Z,0.00
2023-01-07T03:55:34.502Z,0.00
2023-01-07T03:56:34.648Z,0.00
2023-01-07T03:57:34.800Z,0.00
2023-01-07T03:58:34.932Z,0.00
2023-01-07T03:59:35.072Z,0.00
2023-01-07T04:00:35.203Z,0.00
2023-01-07T04:01:35.395Z,0.00
2023-01-07T04:02:35.508Z,0.00
2023-01-07T04:03:35.651Z,0.00
2023-01-07T04:04:35.876Z,0.00
2023-01-07T04:05:35.929Z,0.00
2023-01-07T04:06:36.440Z,0.00
2023-01-07T04:07:36.165Z,0.00
2023-01-07T04:08:36.339Z,0.00
2023-01-07T04:09:36.498Z,0.00
2023-01-07T04:10:36.674Z,0.00
2023-01-07T04:11:36.803Z,0.00
2023-01-07T04:12:36.969Z,0.00
2023-01-07T04:13:37.088Z,0.00
2023-01-07T04:14:37.222Z,0.00
2023-01-07T04:15:37.367Z,0.00
2023-01-07T04:16:37.525Z,0.00
2023-01-07T04:17:37.713Z,0.00
2023-01-07T04:18:37.754Z,0.00
2023-01-07T04:19:37.896Z,0.00
2023-01-07T04:20:38.024Z,0.00
2023-01-07T04:21:38.171Z,0.00
2023-01-07T04:22:38.321Z,0.00
2023-01-07T04:23:38.492Z,0.00
2023-01-07T04:24:38.568Z,0.00
2023-01-07T04:25:38.706Z,0.00
2023-01-07T04:26:38.851Z,0.00
2023-01-07T04:27:39.001Z,0.00
2023-01-07T04:28:39.156Z,0.00
2023-01-07T04:29:39.318Z,0.00
2023-01-07T04:30:39.436Z,0.00
2023-01-07T04:31:39.537Z,0.00
2023-01-07T04:32:39.641Z,0.00
2023-01-07T04:33:39.722Z,0.00
2023-01-07T04:34:39.884Z,0.00
2023-01-07T04:35:39.950Z,0.00
2023-01-07T04:36:40.023Z,0.00
2023-01-07T04:37:40.144Z,0.00
2023-01-07T04:38:40.296Z,0.00
2023-01-07T04:39:40.434Z,0.00
2023-01-07T04:40:40.578Z,0.00
2023-01-07T04:41:40.699Z,0.00
2023-01-07T04:42:40.835Z,0.00
2023-01-07T04:43:40.976Z,0.00
2023-01-07T04:44:41.126Z,0.00
2023-01-07T04:45:41.259Z,0.00
2023-01-07T04:46:41.405Z,0.00
2023-01-07T04:47:41.561Z,0.00
2023-01-07T04:48:41.757Z,0.00
2023-01-07T04:49:41.892Z,0.00
2023-01-07T04:50:42.008Z,0.00
2023-01-07T04:51:42.153Z,0.00
2023-01-07T04:52:42.321Z,0.00
2023-01-07T04:53:42.478Z,0.00
2023-01-07T04:54:42.618Z,0.00
2023-01-07T04:55:43.940Z,0.00
2023-01-07T04:56:42.872Z,0.00
2023-01-07T04:57:43.015Z,0.00
2023-01-07T04:58:43.148Z,0.00
2023-01-07T04:59:43.276Z,0.00
2023-01-07T05:00:43.435Z,0.00
2023-01-07T05:01:43.682Z,0.00
2023-01-07T05:02:43.698Z,0.00
2023-01-07T05:03:43.772Z,0.00
2023-01-07T05:04:43.954Z,0.00
2023-01-07T05:05:44.025Z,0.00
2023-01-07T05:06:44.093Z,0.00
2023-01-07T05:07:44.184Z,0.00
2023-01-07T05:08:44.311Z,0.00
2023-01-07T05:09:44.443Z,0.00
2023-01-07T05:10:44.576Z,0.00
2023-01-07T05:11:44.711Z,0.00
2023-01-07T05:12:44.848Z,0.00
2023-01-07T05:13:45.104Z,0.00
2023-01-07T05:14:45.163Z,0.00
2023-01-07T05:15:45.297Z,0.00
2023-01-07T05:16:45.517Z,0.00
2023-01-07T05:17:45.623Z,0.00
2023-01-07T05:18:45.632Z,0.00
2023-01-07T05:19:45.783Z,0.00
2023-01-07T05:20:45.917Z,0.00
2023-01-07T05:21:46.050Z,0.00
2023-01-07T05:22:46.210Z,0.00
2023-01-07T05:23:46.367Z,0.00
2023-01-07T05:24:46.509Z,0.00
2023-01-07T05:25:46.649Z,0.00
2023-01-07T05:26:46.806Z,0.00
2023-01-07T05:27:47.076Z,0.00
2023-01-07T05:28:47.087Z,0.00
2023-01-07T05:29:47.239Z,0.00
2023-01-07T05:30:47.429Z,0.00
2023-01-07T05:31:47.475Z,0.00
2023-01-07T05:32:47.636Z,0.00
2023-01-07T05:33:47.755Z,0.00
2023-01-07T05:34:47.878Z,0.00
2023-01-07T05:35:48.021Z,0.00
2023-01-07T05:36:48.138Z,0.00
2023-01-07T05:37:48.310Z,0.00
2023-01-07T05:38:48.428Z,0.00
2023-01-07T05:39:48.553Z,0.00
2023-01-07T05:40:49.774Z,0.00
2023-01-07T05:41:48.801Z,0.00
2023-01-07T05:42:48.937Z,0.00
2023-01-07T05:43:49.072Z,0.00
2023-01-07T05:44:49.202Z,0.00
2023-01-07T05:45:49.395Z,0.00
2023-01-07T05:46:49.498Z,0.00
2023-01-07T05:47:49.654Z,0.00
2023-01-07T05:48:49.783Z,0.00
2023-01-07T05:49:49.933Z,0.00
2023-01-07T05:50:50.088Z,0.00
2023-01-07T05:51:50.228Z,0.00
2023-01-07T05:52:50.400Z,0.00
2023-01-07T05:53:50.527Z,0.00
2023-01-07T05:54:50.665Z,0.00
2023-01-07T05:55:50.799Z,0.00
2023-01-07T05:56:50.933Z,0.00
2023-01-07T05:57:51.089Z,0.00
2023-01-07T05:58:51.219Z,0.00
2023-01-07T05:59:51.391Z,0.00
2023-01-07T06:00:51.550Z,0.00
2023-01-07T06:01:51.685Z,0.00
2023-01-07T06:02:51.829Z,0.00
2023-01-07T06:03:52.031Z,0.00
2023-01-07T06:04:52.111Z,0.00
2023-01-07T06:05:52.155Z,0.00
2023-01-07T06:06:52.286Z,0.00
2023-01-07T06:07:52.451Z,0.00
2023-01-07T06:08:52.590Z,0.00
2023-01-07T06:09:52.751Z,0.00
2023-01-07T06:10:52.858Z,0.00
2023-01-07T06:11:52.997Z,0.00
2023-01-07T06:12:53.136Z,0.00
2023-01-07T06:13:53.276Z,0.00
2023-01-07T06:14:53.400Z,0.00
2023-01-07T06:15:53.557Z,0.00
2023-01-07T06:16:53.651Z,0.00
2023-01-07T06:17:53.820Z,0.00
2023-01-07T06:18:53.962Z,0.00
2023-01-07T06:19:54.094Z,0.00
2023-01-07T06:20:54.244Z,0.00
2023-01-07T06:21:54.363Z,0.00
2023-01-07T06:22:54.507Z,0.00
2023-01-07T06:23:54.644Z,0.00
2023-01-07T06:24:54.780Z,0.00
2023-01-07T06:25:54.902Z,0.00
2023-01-07T06:26:55.036Z,0.00
2023-01-07T06:27:55.183Z,0.00
2023-01-07T06:28:55.305Z,0.00
2023-01-07T06:29:55.434Z,0.00
2023-01-07T06:30:55.585Z,0.00
2023-01-07T06:31:55.708Z,0.00
2023-01-07T06:32:55.917Z,0.00
2023-01-07T06:33:56.009Z,0.00
2023-01-07T06:34:56.136Z,0.00
2023-01-07T06:35:56.262Z,0.00
2023-01-07T06:36:56.414Z,0.00
2023-01-07T06:37:56.632Z,0.00
2023-01-07T06:38:56.709Z,0.00
2023-01-07T06:39:56.903Z,0.00
2023-01-07T06:40:57.047Z,0.00
2023-01-07T06:41:57.200Z,0.00
2023-01-07T06:42:57.352Z,0.00
2023-01-07T06:43:57.509Z,4.00
2023-01-07T06:44:57.628Z,0.00
2023-01-07T06:45:57.839Z,4.00
2023-01-07T06:46:57.884Z,4.00
2023-01-07T06:47:58.058Z,4.00
2023-01-07T06:48:58.175Z,4.00
2023-01-07T06:49:58.330Z,4.00
2023-01-07T06:50:58.486Z,4.00
2023-01-07T06:51:58.621Z,8.00
2023-01-07T06:52:58.760Z,8.00
2023-01-07T06:53:58.907Z,12.00
2023-01-07T06:54:59.041Z,12.00
2023-01-07T06:55:59.190Z,16.00
2023-01-07T06:56:59.314Z,16.00
2023-01-07T06:57:59.466Z,20.00
2023-01-07T06:58:59.636Z,20.00
2023-01-07T06:59:59.786Z,24.00
2023-01-07T07:00:59.951Z,28.00
2023-01-07T07:02:00.216Z,28.00
2023-01-07T07:03:00.388Z,36.00
2023-01-07T07:04:00.376Z,36.00
2023-01-07T07:05:00.521Z,44.00
2023-01-07T07:06:00.648Z,48.00
2023-01-07T07:07:00.819Z,48.00
2023-01-07T07:08:00.984Z,52.00
2023-01-07T07:09:01.133Z,56.00
2023-01-07T07:10:01.266Z,60.00
2023-01-07T07:11:01.404Z,68.00
2023-01-07T07:12:01.550Z,76.00
2023-01-07T07:13:01.705Z,80.00
2023-01-07T07:14:01.849Z,76.00
2023-01-07T07:15:02.000Z,84.00
2023-01-07T07:16:02.169Z,76.00
2023-01-07T07:17:02.222Z,80.00
2023-01-07T07:18:02.410Z,80.00
2023-01-07T07:19:02.432Z,84.00
2023-01-07T07:20:02.583Z,92.00
2023-01-07T07:21:02.716Z,100.00
2023-01-07T07:22:04.671Z,104.00
2023-01-07T07:23:02.976Z,116.00
2023-01-07T07:24:03.132Z,120.00
2023-01-07T07:25:03.266Z,124.00
2023-01-07T07:26:03.422Z,124.00
2023-01-07T07:27:03.553Z,120.00
2023-01-07T07:28:03.715Z,120.00
2023-01-07T07:29:03.868Z,128.00
2023-01-07T07:30:04.033Z,136.00
2023-01-07T07:31:04.197Z,148.00
2023-01-07T07:32:04.386Z,156.00
2023-01-07T07:33:04.598Z,176.00
2023-01-07T07:34:04.631Z,196.00
2023-01-07T07:35:04.767Z,224.00
2023-01-07T07:36:04.934Z,256.00
2023-01-07T07:37:05.076Z,292.00
2023-01-07T07:38:05.253Z,328.00
2023-01-07T07:39:05.433Z,360.00
2023-01-07T07:40:05.597Z,392.00
2023-01-07T07:41:05.772Z,392.00
2023-01-07T07:42:05.926Z,384.00
2023-01-07T07:43:10.808Z,368.00
2023-01-07T07:44:07.207Z,344.00
2023-01-07T07:45:06.363Z,356.00
2023-01-07T07:46:06.600Z,352.00
2023-01-07T07:47:06.602Z,328.00
2023-01-07T07:48:06.773Z,316.00
2023-01-07T07:49:06.866Z,312.00
2023-01-07T07:50:07.005Z,308.00
2023-01-07T07:51:07.100Z,304.00
2023-01-07T07:52:07.270Z,320.00
2023-01-07T07:53:07.430Z,344.00
2023-01-07T07:54:07.612Z,368.00
2023-01-07T07:55:20.321Z,396.00
2023-01-07T07:56:08.873Z,424.00
2023-01-07T07:57:08.008Z,468.00
2023-01-07T07:58:08.184Z,508.00
2023-01-07T07:59:08.322Z,548.00
2023-01-07T08:00:08.500Z,584.00
2023-01-07T08:01:08.658Z,636.00
2023-01-07T08:02:08.923Z,676.00
2023-01-07T08:03:09.000Z,688.00
2023-01-07T08:04:09.169Z,716.00
2023-01-07T08:05:09.198Z,732.00
2023-01-07T08:06:09.375Z,760.00
2023-01-07T08:07:09.539Z,780.00
2023-01-07T08:08:09.697Z,808.00
2023-01-07T08:09:09.875Z,856.00
2023-01-07T08:10:10.028Z,912.00
2023-01-07T08:11:10.153Z,896.00
2023-01-07T08:12:10.301Z,792.00
2023-01-07T08:13:10.487Z,708.00
2023-01-07T08:14:10.628Z,648.00
2023-01-07T08:15:10.783Z,620.00
2023-01-07T08:16:11.001Z,644.00
2023-01-07T08:17:11.102Z,804.00
2023-01-07T08:18:11.245Z,992.00
2023-01-07T08:19:11.288Z,980.00
2023-01-07T08:20:11.427Z,1028.00
2023-01-07T08:21:11.563Z,1192.00
2023-01-07T08:22:11.729Z,1384.00
2023-01-07T08:23:11.882Z,1524.00
2023-01-07T08:24:12.051Z,1356.00
2023-01-07T08:25:12.190Z,1112.00
2023-01-07T08:26:12.330Z,1056.00
2023-01-07T08:27:12.502Z,1100.00
2023-01-07T08:28:12.641Z,1232.00
2023-01-07T08:29:12.783Z,1564.00
2023-01-07T08:30:12.916Z,1888.00
2023-01-07T08:31:13.111Z,2004.00
2023-01-07T08:32:13.124Z,2056.00
2023-01-07T08:33:13.279Z,2212.00
2023-01-07T08:34:13.410Z,2412.00
2023-01-07T08:35:13.541Z,2508.00
2023-01-07T08:36:28.854Z,3260.00
2023-01-07T08:37:14.744Z,3464.00
2023-01-07T08:38:13.881Z,3948.00
2023-01-07T08:39:14.017Z,4652.00
2023-01-07T08:40:14.148Z,6872.00
2023-01-07T08:41:14.268Z,8204.00
2023-01-07T08:42:14.397Z,8028.00
2023-01-07T08:43:14.536Z,7312.00
2023-01-07T08:44:14.638Z,4308.00
2023-01-07T08:45:14.753Z,2820.00
2023-01-07T08:46:14.977Z,2312.00
2023-01-07T08:47:14.999Z,1924.00
2023-01-07T08:48:15.135Z,1596.00
2023-01-07T08:49:15.531Z,1512.00
2023-01-07T08:50:15.294Z,1440.00
2023-01-07T08:51:15.438Z,1436.00
2023-01-07T08:52:15.545Z,1496.00
2023-01-07T08:53:15.799Z,1580.00
2023-01-07T08:54:15.783Z,1588.00
2023-01-07T08:55:15.910Z,1648.00
2023-01-07T08:56:16.013Z,1744.00
2023-01-07T08:57:16.125Z,1860.00
2023-01-07T08:58:16.243Z,1980.00
2023-01-07T08:59:16.355Z,2072.00
2023-01-07T09:00:16.489Z,2076.00
2023-01-07T09:01:16.695Z,2028.00
2023-01-07T09:02:16.875Z,2040.00
2023-01-07T09:03:16.845Z,2112.00
2023-01-07T09:04:16.952Z,1988.00
2023-01-07T09:05:17.083Z,1860.00
2023-01-07T09:06:17.212Z,1788.00
2023-01-07T09:07:17.354Z,1864.00
2023-01-07T09:08:17.500Z,1944.00
2023-01-07T09:09:17.625Z,1996.00
2023-01-07T09:10:17.756Z,1968.00
2023-01-07T09:11:17.864Z,1920.00
2023-01-07T09:12:18.025Z,1912.00
2023-01-07T09:13:18.127Z,1948.00
2023-01-07T09:14:18.244Z,1904.00
2023-01-07T09:15:18.363Z,1812.00
2023-01-07T09:16:18.557Z,1804.00
2023-01-07T09:17:18.583Z,1868.00
2023-01-07T09:18:18.718Z,1928.00
2023-01-07T09:19:19.221Z,2024.00
2023-01-07T09:20:18.890Z,2012.00
2023-01-07T09:21:19.047Z,2048.00
2023-01-07T09:22:19.191Z,2184.00
2023-01-07T09:23:19.334Z,2308.00
2023-01-07T09:24:19.463Z,2428.00
2023-01-07T09:25:19.582Z,2668.00
2023-01-07T09:26:19.691Z,2812.00
2023-01-07T09:27:19.819Z,2772.00
2023-01-07T09:28:20.024Z,2684.00
2023-01-07T09:29:20.035Z,2664.00
2023-01-07T09:30:20.177Z,2636.00
2023-01-07T09:31:20.358Z,2640.00
2023-01-07T09:32:20.379Z,2616.00
2023-01-07T09:33:20.587Z,2640.00
2023-01-07T09:34:20.599Z,2592.00
2023-01-07T09:35:20.729Z,2616.00
2023-01-07T09:36:20.865Z,2660.00
2023-01-07T09:37:21.039Z,2740.00
2023-01-07T09:38:21.132Z,2876.00
2023-01-07T09:39:21.273Z,3012.00
2023-01-07T09:40:21.396Z,3248.00
2023-01-07T09:41:21.525Z,3624.00
2023-01-07T09:42:21.868Z,3984.00
2023-01-07T09:43:21.807Z,4148.00
2023-01-07T09:44:28.935Z,4540.00
2023-01-07T09:45:22.045Z,4756.00
2023-01-07T09:46:22.160Z,4660.00
2023-01-07T09:47:22.279Z,4356.00
2023-01-07T09:48:22.403Z,4156.00
2023-01-07T09:49:22.577Z,4076.00
2023-01-07T09:50:25.004Z,4196.00
2023-01-07T09:51:22.849Z,4484.00
2023-01-07T09:52:22.949Z,4788.00
2023-01-07T09:53:23.082Z,4956.00
2023-01-07T09:54:23.197Z,4948.00
2023-01-07T09:55:23.300Z,4924.00
2023-01-07T09:56:23.444Z,4824.00
2023-01-07T09:57:23.544Z,4964.00
2023-01-07T09:58:23.673Z,5264.00
2023-01-07T09:59:23.792Z,5472.00
2023-01-07T10:00:23.928Z,5288.00
2023-01-07T10:01:24.132Z,5368.00
2023-01-07T10:02:24.190Z,4884.00
2023-01-07T10:03:25.170Z,4432.00
2023-01-07T10:04:24.381Z,4232.00
2023-01-07T10:05:24.494Z,3996.00
2023-01-07T10:06:41.943Z,3812.00
2023-01-07T10:07:25.675Z,4136.00
2023-01-07T10:08:30.968Z,4628.00
2023-01-07T10:09:25.881Z,4788.00
2023-01-07T10:10:24.981Z,4840.00
2023-01-07T10:11:25.099Z,4872.00
2023-01-07T10:12:25.205Z,4844.00
2023-01-07T10:13:25.328Z,4796.00
2023-01-07T10:14:25.454Z,4896.00
2023-01-07T10:15:25.584Z,4964.00
2023-01-07T10:16:25.740Z,4736.00
2023-01-07T10:17:25.829Z,5180.00
2023-01-07T10:18:25.941Z,6436.00
2023-01-07T10:19:26.062Z,8420.00
2023-01-07T10:20:26.158Z,5892.00
2023-01-07T10:21:26.302Z,5228.00
2023-01-07T10:22:26.416Z,4940.00
2023-01-07T10:23:26.563Z,4888.00
2023-01-07T10:24:26.655Z,5008.00
2023-01-07T10:25:26.774Z,5228.00
2023-01-07T10:26:26.885Z,5380.00
2023-01-07T10:27:27.079Z,5592.00
2023-01-07T10:28:27.074Z,6052.00
2023-01-07T10:29:27.187Z,6540.00
2023-01-07T10:30:27.294Z,7252.00
2023-01-07T10:31:27.430Z,7744.00
2023-01-07T10:32:27.519Z,7712.00
2023-01-07T10:33:27.637Z,7316.00
2023-01-07T10:34:27.741Z,6792.00
2023-01-07T10:35:27.846Z,6372.00
2023-01-07T10:36:27.941Z,6428.00
2023-01-07T10:37:28.047Z,6632.00
2023-01-07T10:38:28.153Z,6692.00
2023-01-07T10:39:28.263Z,6680.00
2023-01-07T10:40:28.375Z,6588.00
2023-01-07T10:41:28.475Z,6056.00
2023-01-07T10:42:28.603Z,5464.00
2023-01-07T10:43:28.830Z,5276.00
2023-01-07T10:44:28.817Z,5196.00
2023-01-07T10:45:28.962Z,4996.00
2023-01-07T10:46:29.094Z,4812.00
2023-01-07T10:47:29.212Z,4388.00
2023-01-07T10:48:29.342Z,3952.00
2023-01-07T10:49:29.442Z,3740.00
2023-01-07T10:50:29.542Z,5544.00
2023-01-07T10:51:29.651Z,4024.00
2023-01-07T10:52:29.742Z,4524.00
2023-01-07T10:53:29.871Z,5576.00
2023-01-07T10:54:29.991Z,5384.00
2023-01-07T10:55:30.101Z,5736.00
2023-01-07T10:56:30.205Z,5916.00
2023-01-07T10:57:30.302Z,5784.00
2023-01-07T10:58:30.434Z,5552.00
2023-01-07T10:59:30.538Z,5388.00
2023-01-07T11:00:30.666Z,5124.00
2023-01-07T11:01:30.841Z,4844.00
2023-01-07T11:02:30.999Z,5228.00
2023-01-07T11:03:30.939Z,6364.00
2023-01-07T11:04:31.031Z,6588.00
2023-01-07T11:05:31.133Z,6692.00
2023-01-07T11:06:31.238Z,5480.00
2023-01-07T11:07:31.338Z,5472.00
2023-01-07T11:08:31.479Z,5556.00
2023-01-07T11:09:31.578Z,5412.00
2023-01-07T11:10:31.668Z,5132.00
2023-01-07T11:11:31.779Z,4764.00
2023-01-07T11:12:31.881Z,4656.00
2023-01-07T11:13:32.030Z,4792.00
2023-01-07T11:14:32.104Z,5368.00
2023-01-07T11:15:32.232Z,6220.00
2023-01-07T11:16:32.356Z,12672.00
2023-01-07T11:17:32.450Z,15712.00
2023-01-07T11:18:32.563Z,15072.00
2023-01-07T11:19:32.657Z,10348.00
2023-01-07T11:20:32.797Z,16288.00
2023-01-07T11:21:43.436Z,20448.00
2023-01-07T11:22:34.003Z,15392.00
2023-01-07T11:23:33.105Z,12500.00
2023-01-07T11:24:33.208Z,15680.00
2023-01-07T11:25:33.286Z,18656.00
2023-01-07T11:26:34.212Z,18272.00
2023-01-07T11:27:33.498Z,16544.00
2023-01-07T11:28:33.586Z,16000.00
2023-01-07T11:29:33.658Z,11964.00
2023-01-07T11:30:33.723Z,9764.00
2023-01-07T11:31:33.827Z,11228.00
2023-01-07T11:32:33.876Z,12648.00
2023-01-07T11:34:03.295Z,11348.00
2023-01-07T11:34:34.975Z,11392.00
2023-01-07T11:35:34.045Z,11424.00
2023-01-07T11:36:34.114Z,10840.00
2023-01-07T11:37:34.213Z,9936.00
2023-01-07T11:38:34.301Z,9412.00
2023-01-07T11:39:34.394Z,9780.00
2023-01-07T11:40:34.457Z,10480.00
2023-01-07T11:41:34.540Z,10108.00
2023-01-07T11:42:34.617Z,8276.00
2023-01-07T11:43:34.718Z,8028.00
2023-01-07T11:44:34.795Z,8148.00
2023-01-07T11:45:35.004Z,8036.00
2023-01-07T11:46:34.956Z,7944.00
2023-01-07T11:47:34.967Z,7652.00
2023-01-07T11:48:35.036Z,7252.00
2023-01-07T11:49:35.126Z,7064.00
2023-01-07T11:50:35.201Z,6740.00
2023-01-07T11:51:35.294Z,6636.00
2023-01-07T11:52:35.371Z,6612.00
2023-01-07T11:53:35.483Z,6740.00
2023-01-07T11:54:35.566Z,6864.00
2023-01-07T11:55:35.667Z,6996.00
2023-01-07T11:56:35.742Z,7280.00
2023-01-07T11:57:35.832Z,7220.00
2023-01-07T11:58:35.948Z,7132.00
2023-01-07T11:59:36.038Z,7012.00
2023-01-07T12:00:36.148Z,7068.00
2023-01-07T12:01:36.205Z,7244.00
2023-01-07T12:02:36.303Z,7160.00
2023-01-07T12:03:36.488Z,7012.00
2023-01-07T12:04:36.458Z,6720.00
2023-01-07T12:05:36.597Z,6172.00
2023-01-07T12:06:36.689Z,5912.00
2023-01-07T12:07:36.780Z,5572.00
2023-01-07T12:08:36.916Z,5388.00
2023-01-07T12:09:37.033Z,5332.00
2023-01-07T12:10:37.150Z,5316.00
2023-01-07T12:11:37.253Z,5208.00
2023-01-07T12:12:37.394Z,4932.00
2023-01-07T12:13:37.490Z,4540.00
2023-01-07T12:14:37.574Z,4324.00
2023-01-07T12:15:37.689Z,4140.00
2023-01-07T12:16:37.845Z,3964.00
2023-01-07T12:17:37.867Z,3760.00
2023-01-07T12:18:37.979Z,3544.00
2023-01-07T12:19:38.656Z,3328.00
2023-01-07T12:20:38.207Z,3132.00
2023-01-07T12:21:38.299Z,3044.00
2023-01-07T12:22:38.420Z,2932.00
2023-01-07T12:23:38.547Z,2844.00
2023-01-07T12:24:38.661Z,2740.00
2023-01-07T12:25:38.767Z,2652.00
2023-01-07T12:26:38.890Z,2608.00
2023-01-07T12:27:39.032Z,2680.00
2023-01-07T12:28:39.052Z,2676.00
2023-01-07T12:29:39.203Z,2764.00
2023-01-07T12:30:39.294Z,2856.00
2023-01-07T12:31:39.459Z,2904.00
2023-01-07T12:32:39.548Z,2896.00
2023-01-07T12:33:39.679Z,2864.00
2023-01-07T12:34:39.774Z,2832.00
2023-01-07T12:35:39.888Z,2776.00
2023-01-07T12:36:39.994Z,2716.00
2023-01-07T12:37:40.112Z,2656.00
2023-01-07T12:38:40.254Z,2680.00
2023-01-07T12:39:40.343Z,2756.00
2023-01-07T12:40:40.447Z,2892.00
2023-01-07T12:41:40.558Z,3076.00
2023-01-07T12:42:40.664Z,3264.00
2023-01-07T12:43:40.790Z,3368.00
2023-01-07T12:44:40.896Z,3404.00
2023-01-07T12:45:41.015Z,3444.00
2023-01-07T12:46:41.165Z,3476.00
2023-01-07T12:47:41.211Z,3512.00